Time;durP1;ratioP1;P1;durP2;ratioP2;P2;SDS_P1;SDS_P2;PMS_P1;PMS_P2;Temp;Humidity;BMP_temperature;BMP_pressure;BME280_temperature;BME280_humidity;BME280_pressure;Samples;Min_cycle;Max_cycle;Signal;HPM_P1;HPM_P2
2021/07/06 00:02:11;;;;;;;1.75;1.17;;;19.00;99.90;;;;;;5018839;28;20045;-84
2021/07/06 00:04:59;;;;;;;2.20;1.20;;;19.00;99.90;;;;;;5018014;28;20139;-86
2021/07/06 00:07:49;;;;;;;3.05;1.50;;;19.00;99.90;;;;;;5018705;28;20103;-85
2021/07/06 00:10:36;;;;;;;2.40;1.30;;;18.90;99.90;;;;;;5018143;28;20495;-84
2021/07/06 00:13:23;;;;;;;2.67;1.30;;;18.90;99.90;;;;;;5035486;28;20048;-84
2021/07/06 00:16:11;;;;;;;3.03;1.13;;;18.90;99.90;;;;;;5037839;28;20510;-83
2021/07/06 00:18:59;;;;;;;1.95;1.35;;;20.00;99.90;;;;;;5052756;28;20045;-84
2021/07/06 00:21:47;;;;;;;2.70;1.50;;;18.90;99.90;;;;;;5036996;28;20041;-86
2021/07/06 00:24:35;;;;;;;2.25;1.20;;;18.90;99.90;;;;;;5037798;28;20053;-84
2021/07/06 00:27:22;;;;;;;1.92;1.30;;;18.90;99.90;;;;;;5036938;28;20049;-84
2021/07/06 00:30:10;;;;;;;1.88;1.13;;;19.30;99.90;;;;;;5037303;28;20425;-85
2021/07/06 00:32:57;;;;;;;2.75;1.38;;;18.90;99.90;;;;;;5038120;28;20044;-83
2021/07/06 00:35:45;;;;;;;3.03;1.48;;;19.80;99.90;;;;;;5038113;28;20059;-84
2021/07/06 00:38:32;;;;;;;2.55;1.20;;;18.90;99.90;;;;;;5036161;28;20037;-84
2021/07/06 00:41:20;;;;;;;2.25;1.15;;;18.80;99.90;;;;;;5038674;28;20403;-85
2021/07/06 00:44:12;;;;;;;4.15;1.30;;;18.90;99.90;;;;;;5051737;28;20045;-84
2021/07/06 00:46:59;;;;;;;2.08;1.10;;;18.90;99.90;;;;;;5052326;28;20049;-84
2021/07/06 00:49:46;;;;;;;4.22;1.27;;;18.90;99.90;;;;;;5052982;28;20045;-86
2021/07/06 00:52:33;;;;;;;3.42;1.42;;;18.90;99.90;;;;;;5038042;28;20236;-84
2021/07/06 00:55:21;;;;;;;3.28;1.42;;;18.90;99.90;;;;;;5037881;28;20068;-84
2021/07/06 00:58:11;;;;;;;3.42;1.45;;;18.90;99.90;;;;;;5037491;28;20516;-84
2021/07/06 01:00:58;;;;;;;3.75;1.50;;;18.90;99.90;;;;;;5050016;28;20044;-83
2021/07/06 01:03:48;;;;;;;2.30;1.20;;;18.90;99.90;;;;;;5037921;28;20049;-83
2021/07/06 01:06:35;;;;;;;2.95;1.13;;;18.80;99.90;;;;;;5035782;28;20059;-86
2021/07/06 01:09:22;;;;;;;3.15;1.40;;;18.80;99.90;;;;;;5034968;28;20459;-84
2021/07/06 01:12:10;;;;;;;2.85;1.17;;;18.80;99.90;;;;;;5035667;28;20494;-86
2021/07/06 01:14:59;;;;;;;2.13;1.17;;;18.90;99.90;;;;;;5037418;28;20102;-84
2021/07/06 01:17:57;;;;;;;4.25;1.42;;;18.80;99.90;;;;;;5037795;28;20095;-84
2021/07/06 01:20:46;;;;;;;1.45;0.98;;;18.90;99.90;;;;;;5039743;28;20045;-84
2021/07/06 01:23:34;;;;;;;3.08;1.30;;;18.90;99.90;;;;;;5039806;28;20079;-85
2021/07/06 01:26:22;;;;;;;2.58;1.10;;;18.70;99.90;;;;;;5037680;28;20110;-87
2021/07/06 01:29:09;;;;;;;1.88;1.08;;;18.80;99.90;;;;;;5035815;28;20131;-85
2021/07/06 01:31:56;;;;;;;2.40;1.23;;;18.80;99.90;;;;;;5037934;28;20046;-84
2021/07/06 01:34:44;;;;;;;2.30;1.30;;;18.90;99.90;;;;;;5038016;28;20056;-86
2021/07/06 01:37:31;;;;;;;1.92;1.20;;;18.90;99.90;;;;;;5037760;28;20458;-86
2021/07/06 01:40:22;;;;;;;2.50;1.20;;;18.80;99.90;;;;;;5037216;28;20128;-86
2021/07/06 01:43:09;;;;;;;2.33;1.33;;;19.60;99.90;;;;;;5037698;28;20091;-84
2021/07/06 01:45:56;;;;;;;1.58;1.13;;;18.80;99.90;;;;;;5038484;28;20175;-86
2021/07/06 01:48:43;;;;;;;2.63;1.20;;;18.80;99.90;;;;;;5036362;28;20052;-84
2021/07/06 01:51:30;;;;;;;2.65;1.17;;;18.70;99.90;;;;;;5037756;28;20052;-82
2021/07/06 01:54:17;;;;;;;2.78;1.30;;;18.70;99.90;;;;;;5052450;28;20425;-84
2021/07/06 01:57:06;;;;;;;2.40;1.27;;;18.60;99.90;;;;;;5041226;28;20052;-86
2021/07/06 01:59:53;;;;;;;3.85;1.48;;;18.60;99.90;;;;;;5055959;28;20526;-84
2021/07/06 02:02:41;;;;;;;2.60;1.38;;;18.60;99.90;;;;;;5041810;28;20502;-83
2021/07/06 02:05:31;;;;;;;1.77;1.10;;;18.70;99.90;;;;;;5041344;28;20064;-87
2021/07/06 02:08:18;;;;;;;;;;;18.60;99.90;;;;;;5040964;28;20147;-84
2021/07/06 02:11:06;;;;;;;2.25;1.20;;;18.60;99.90;;;;;;5040526;28;19931;-86
2021/07/06 02:13:55;;;;;;;3.80;1.63;;;18.60;99.90;;;;;;5034532;28;20071;-84
2021/07/06 02:16:42;;;;;;;2.25;1.38;;;18.50;99.90;;;;;;5019833;28;20136;-84
2021/07/06 02:19:29;;;;;;;1.80;1.00;;;18.50;99.90;;;;;;5019778;28;20628;-86
2021/07/06 02:22:16;;;;;;;1.83;1.20;;;20.50;99.90;;;;;;5020345;28;20068;-84
2021/07/06 02:25:05;;;;;;;1.38;1.05;;;18.50;99.90;;;;;;5021205;28;20045;-86
2021/07/06 02:27:53;;;;;;;3.83;1.45;;;18.50;99.90;;;;;;5020651;28;20060;-85
2021/07/06 02:30:41;;;;;;;3.30;1.23;;;18.50;99.90;;;;;;5020676;28;20413;-85
2021/07/06 02:33:33;;;;;;;3.05;1.48;;;18.40;99.90;;;;;;5036832;28;20053;-87
2021/07/06 02:36:20;;;;;;;1.88;1.20;;;18.40;99.90;;;;;;5038874;28;20174;-84
2021/07/06 02:39:07;;;;;;;1.88;1.02;;;18.40;99.90;;;;;;5038629;28;20135;-83
2021/07/06 02:41:54;;;;;;;3.03;1.30;;;18.40;99.90;;;;;;5039675;28;20067;-86
2021/07/06 02:44:41;;;;;;;3.90;1.00;;;18.40;99.90;;;;;;5053325;28;20051;-84
2021/07/06 02:47:29;;;;;;;5.45;1.45;;;18.40;99.90;;;;;;5053162;28;20102;-84
2021/07/06 02:50:19;;;;;;;3.55;1.20;;;18.30;99.90;;;;;;5040136;28;20133;-85
2021/07/06 02:53:07;;;;;;;2.17;0.90;;;18.30;99.90;;;;;;5039282;28;20048;-84
2021/07/06 02:55:54;;;;;;;2.53;1.10;;;18.30;99.90;;;;;;5038806;28;20422;-83
2021/07/06 02:58:41;;;;;;;1.70;1.02;;;18.70;99.90;;;;;;5039910;28;20055;-85
2021/07/06 03:01:28;;;;;;;1.55;1.05;;;18.20;99.90;;;;;;5040025;28;20041;-83
2021/07/06 03:04:17;;;;;;;2.70;1.20;;;19.60;99.90;;;;;;5038259;28;20041;-86
2021/07/06 03:07:04;;;;;;;2.25;1.17;;;18.20;99.90;;;;;;5038925;28;20045;-87
2021/07/06 03:09:51;;;;;;;3.13;1.10;;;18.20;99.90;;;;;;5038037;28;20040;-84
2021/07/06 03:12:39;;;;;;;2.70;1.20;;;18.10;99.90;;;;;;5039814;28;20129;-86
2021/07/06 03:15:28;;;;;;;1.52;0.90;;;18.10;99.90;;;;;;5054328;28;20055;-83
2021/07/06 03:18:15;;;;;;;2.58;1.00;;;18.10;99.90;;;;;;5039569;28;20071;-83
2021/07/06 03:21:04;;;;;;;1.60;1.02;;;18.20;99.90;;;;;;5039457;28;20056;-84
2021/07/06 03:23:55;;;;;;;1.92;0.85;;;18.20;99.90;;;;;;5052904;28;20052;-84
2021/07/06 03:26:42;;;;;;;3.00;1.08;;;18.20;99.90;;;;;;5039794;28;20420;-83
2021/07/06 03:29:30;;;;;;;2.80;1.02;;;18.20;99.90;;;;;;5038993;28;20074;-84
2021/07/06 03:32:17;;;;;;;2.33;0.95;;;18.20;99.90;;;;;;5039505;28;20037;-86
2021/07/06 03:35:06;;;;;;;1.65;0.88;;;18.20;99.90;;;;;;5038794;28;20399;-82
2021/07/06 03:37:55;;;;;;;1.63;0.80;;;18.30;99.90;;;;;;5052708;28;20562;-84
2021/07/06 03:40:44;;;;;;;1.15;0.75;;;18.30;99.90;;;;;;5038657;28;20719;-85
2021/07/06 03:43:31;;;;;;;2.30;1.00;;;18.20;99.90;;;;;;5038070;28;20048;-84
2021/07/06 03:46:18;;;;;;;2.00;0.80;;;18.20;99.90;;;;;;5053844;28;20150;-84
2021/07/06 03:49:06;;;;;;;1.25;0.70;;;18.20;99.90;;;;;;5037099;28;20053;-84
2021/07/06 03:51:53;;;;;;;2.92;0.90;;;18.30;99.90;;;;;;5038702;28;20502;-83
2021/07/06 03:54:42;;;;;;;1.88;0.95;;;18.30;99.90;;;;;;5039236;28;20053;-84
2021/07/06 03:57:29;;;;;;;1.88;0.90;;;18.30;99.90;;;;;;5038096;28;20067;-84
2021/07/06 04:00:18;;;;;;;1.80;0.85;;;18.30;99.90;;;;;;5052241;28;20057;-84
2021/07/06 04:03:05;;;;;;;3.70;0.93;;;18.40;99.90;;;;;;5038370;28;20122;-85
2021/07/06 04:05:52;;;;;;;1.58;0.80;;;18.40;99.90;;;;;;5038683;28;20041;-84
2021/07/06 04:08:39;;;;;;;2.50;0.80;;;18.40;99.90;;;;;;5037128;28;20174;-86
2021/07/06 04:11:27;;;;;;;1.63;0.90;;;18.40;99.90;;;;;;5052342;28;20115;-83
2021/07/06 04:14:14;;;;;;;1.52;0.80;;;18.50;99.90;;;;;;5038401;28;20040;-83
2021/07/06 04:17:02;;;;;;;2.85;1.08;;;18.60;99.90;;;;;;5038474;28;20045;-84
2021/07/06 04:19:49;;;;;;;2.83;1.00;;;18.60;99.90;;;;;;5037328;28;20041;-86
2021/07/06 04:22:36;;;;;;;4.95;1.17;;;18.80;99.90;;;;;;5037638;28;20053;-84
2021/07/06 04:25:23;;;;;;;1.15;0.90;;;18.80;99.90;;;;;;5038742;28;20053;-83
2021/07/06 04:28:12;;;;;;;2.47;0.98;;;18.80;99.90;;;;;;5038224;28;20138;-84
2021/07/06 04:30:59;;;;;;;1.92;0.90;;;18.80;99.90;;;;;;5038255;28;20424;-84
2021/07/06 04:33:46;;;;;;;2.78;0.82;;;18.90;99.90;;;;;;5036827;28;20048;-84
2021/07/06 04:36:33;;;;;;;3.03;0.82;;;18.90;99.90;;;;;;5038016;28;20135;-85
2021/07/06 04:39:21;;;;;;;1.70;0.90;;;18.90;99.90;;;;;;5036411;28;20051;-84
2021/07/06 04:42:12;;;;;;;2.03;0.90;;;18.80;99.90;;;;;;5038141;28;20041;-84
2021/07/06 04:45:00;;;;;;;2.92;1.00;;;19.00;99.90;;;;;;5053692;28;20226;-84
2021/07/06 04:47:47;;;;;;;3.22;1.00;;;18.90;99.90;;;;;;5037659;28;20232;-84
2021/07/06 04:50:37;;;;;;;2.38;0.90;;;19.00;99.90;;;;;;5036351;28;20132;-86
2021/07/06 04:53:24;;;;;;;2.80;0.88;;;19.00;99.90;;;;;;5037745;28;20049;-87
2021/07/06 04:56:11;;;;;;;1.73;0.80;;;19.00;99.90;;;;;;5037172;28;20055;-82
2021/07/06 04:58:58;;;;;;;1.67;0.90;;;19.10;99.90;;;;;;5037311;28;20049;-84
2021/07/06 05:01:47;;;;;;;1.80;0.95;;;19.20;99.90;;;;;;5037669;28;20514;-83
2021/07/06 05:04:34;;;;;;;3.03;1.20;;;19.10;99.90;;;;;;5037407;28;20059;-84
2021/07/06 05:07:22;;;;;;;1.35;0.73;;;19.00;99.90;;;;;;5050359;28;20056;-85
2021/07/06 05:10:12;;;;;;;1.88;0.90;;;19.00;99.90;;;;;;5036320;28;20045;-84
2021/07/06 05:12:59;;;;;;;2.95;1.27;;;18.90;99.90;;;;;;5036358;28;20072;-85
2021/07/06 05:15:47;;;;;;;2.40;1.10;;;18.90;99.90;;;;;;5037448;28;20513;-84
2021/07/06 05:18:35;;;;;;;3.90;1.10;;;18.90;99.90;;;;;;5037044;28;20049;-85
2021/07/06 05:21:22;;;;;;;3.00;0.90;;;18.90;99.90;;;;;;5037135;28;20103;-84
2021/07/06 05:24:27;;;;;;;3.38;1.10;;;19.00;99.90;;;;;;5039935;28;20045;-86
2021/07/06 05:27:14;;;;;;;4.15;1.10;;;19.20;99.90;;;;;;5037844;28;20045;-86
2021/07/06 05:30:02;;;;;;;2.22;1.00;;;19.20;99.90;;;;;;5039607;28;20094;-85
2021/07/06 05:32:49;;;;;;;3.58;1.05;;;19.50;99.90;;;;;;5042275;28;20124;-84
2021/07/06 05:35:38;;;;;;;1.48;1.00;;;19.60;99.90;;;;;;5055106;28;20126;-85
2021/07/06 05:38:25;;;;;;;1.98;0.90;;;19.70;99.90;;;;;;5041192;28;20085;-84
2021/07/06 05:41:20;;;;;;;3.97;0.95;;;19.80;99.90;;;;;;5042967;28;20091;-84
2021/07/06 05:44:08;;;;;;;2.45;0.95;;;19.90;99.90;;;;;;5054704;28;20109;-84
2021/07/06 05:46:55;;;;;;;2.97;1.20;;;20.00;99.90;;;;;;5055039;28;20045;-84
2021/07/06 05:49:42;;;;;;;2.10;1.00;;;20.00;99.90;;;;;;5040697;28;20072;-84
2021/07/06 05:52:31;;;;;;;3.05;1.05;;;20.00;99.90;;;;;;5041066;28;20071;-85
2021/07/06 05:55:18;;;;;;;4.30;1.00;;;19.90;99.90;;;;;;5039744;28;20056;-82
2021/07/06 05:58:05;;;;;;;2.20;1.08;;;19.90;99.90;;;;;;5040397;28;20502;-84
2021/07/06 06:00:53;;;;;;;1.90;1.20;;;19.90;99.90;;;;;;5055822;28;20041;-83
2021/07/06 06:03:40;;;;;;;1.40;0.82;;;20.10;99.90;;;;;;5044643;28;20103;-84
2021/07/06 06:06:27;;;;;;;3.80;1.13;;;20.20;99.90;;;;;;5045126;28;20106;-84
2021/07/06 06:09:16;;;;;;;3.85;1.20;;;20.00;99.90;;;;;;5040300;28;20059;-86
2021/07/06 06:12:04;;;;;;;2.78;1.20;;;20.10;99.90;;;;;;5040933;28;20041;-85
2021/07/06 06:14:51;;;;;;;3.33;1.40;;;20.20;99.90;;;;;;5042004;28;20066;-84
2021/07/06 06:17:39;;;;;;;1.85;1.10;;;20.20;99.90;;;;;;5054762;28;20136;-84
2021/07/06 06:20:26;;;;;;;4.35;1.20;;;20.40;99.90;;;;;;5039500;28;20049;-87
2021/07/06 06:23:13;;;;;;;2.97;1.20;;;20.50;99.90;;;;;;5055902;28;20045;-84
2021/07/06 06:26:02;;;;;;;3.28;1.30;;;20.50;99.90;;;;;;5040765;28;20133;-86
2021/07/06 06:28:49;;;;;;;2.80;1.20;;;20.70;99.90;;;;;;5055228;28;20124;-86
2021/07/06 06:31:36;;;;;;;3.33;1.02;;;20.90;99.90;;;;;;5040366;28;20049;-85
2021/07/06 06:34:24;;;;;;;3.45;1.10;;;21.20;99.90;;;;;;5040471;28;20132;-86
2021/07/06 06:37:11;;;;;;;2.00;0.88;;;21.50;99.90;;;;;;5038794;28;20051;-84
2021/07/06 06:39:58;;;;;;;1.90;1.10;;;23.50;99.90;;;;;;5041227;28;20057;-85
2021/07/06 06:42:46;;;;;;;2.55;1.15;;;22.00;99.90;;;;;;5039213;28;20041;-84
2021/07/06 06:45:33;;;;;;;2.53;1.00;;;22.20;99.90;;;;;;5040241;28;20049;-85
2021/07/06 06:48:20;;;;;;;2.33;1.20;;;22.20;99.90;;;;;;5039262;28;20055;-84
2021/07/06 06:51:08;;;;;;;2.65;1.10;;;22.20;99.90;;;;;;5040054;28;20049;-85
2021/07/06 06:53:55;;;;;;;3.30;1.08;;;22.40;99.90;;;;;;5040208;28;20041;-85
2021/07/06 06:56:43;;;;;;;3.30;1.05;;;22.30;99.90;;;;;;5040365;28;20176;-85
2021/07/06 06:59:32;;;;;;;2.97;1.00;;;22.20;99.90;;;;;;5039897;28;20549;-84
2021/07/06 07:02:28;;;;;;;3.65;1.17;;;22.10;99.90;;;;;;5038264;28;20430;-84
2021/07/06 07:05:15;;;;;;;2.53;1.00;;;22.00;99.90;;;;;;5038581;28;20041;-84
2021/07/06 07:08:04;;;;;;;2.58;0.90;;;21.90;99.90;;;;;;5039275;28;20503;-84
2021/07/06 07:10:52;;;;;;;3.33;1.27;;;21.90;99.90;;;;;;5053343;28;20051;-84
2021/07/06 07:13:39;;;;;;;3.42;0.95;;;21.80;99.90;;;;;;5054054;28;20063;-83
2021/07/06 07:16:27;;;;;;;2.95;1.17;;;21.90;99.90;;;;;;5038896;28;20045;-86
2021/07/06 07:19:15;;;;;;;2.03;1.07;;;21.90;99.90;;;;;;5037852;28;20088;-87
2021/07/06 07:22:19;;;;;;;2.00;1.00;;;22.00;99.90;;;;;;5042155;28;20080;-84
2021/07/06 07:25:07;;;;;;;4.65;1.40;;;22.00;99.90;;;;;;5039264;28;20108;-85
2021/07/06 07:27:54;;;;;;;2.50;1.17;;;22.00;99.90;;;;;;5052777;28;20127;-84
2021/07/06 07:30:41;;;;;;;2.20;1.20;;;22.00;99.90;;;;;;5052947;28;20045;-84
2021/07/06 07:33:30;;;;;;;4.38;1.40;;;22.10;99.90;;;;;;5039780;28;20053;-84
2021/07/06 07:36:17;;;;;;;6.10;1.58;;;22.40;99.90;;;;;;5037508;28;20521;-85
2021/07/06 07:39:04;;;;;;;3.95;1.20;;;22.70;99.90;;;;;;5039013;28;20048;-85
2021/07/06 07:41:51;;;;;;;4.70;1.30;;;23.00;99.90;;;;;;5040890;28;20045;-86
2021/07/06 07:44:39;;;;;;;2.92;1.10;;;25.30;99.90;;;;;;5039938;28;20049;-83
2021/07/06 07:47:26;;;;;;;4.07;1.20;;;23.60;99.90;;;;;;5039938;28;20096;-85
2021/07/06 07:50:15;;;;;;;4.63;1.38;;;23.80;99.90;;;;;;5038626;28;20041;-86
2021/07/06 07:53:02;;;;;;;1.77;1.08;;;24.00;99.90;;;;;;5040876;28;20045;-87
2021/07/06 07:55:51;;;;;;;3.92;1.20;;;24.00;99.90;;;;;;5040001;28;20045;-87
2021/07/06 07:58:38;;;;;;;3.67;1.23;;;24.00;99.90;;;;;;5039580;28;20128;-87
2021/07/06 08:01:25;;;;;;;6.80;1.20;;;23.80;99.90;;;;;;5038858;28;20041;-85
2021/07/06 08:04:13;;;;;;;2.80;1.20;;;23.60;99.90;;;;;;5040522;28;20128;-88
2021/07/06 08:07:01;;;;;;;6.35;1.50;;;23.60;99.90;;;;;;5054626;28;20128;-85
2021/07/06 08:09:48;;;;;;;3.35;1.33;;;23.80;99.90;;;;;;5054789;28;20124;-84
2021/07/06 08:12:35;;;;;;;2.45;1.40;;;23.70;99.90;;;;;;5055948;28;20045;-87
2021/07/06 08:15:23;;;;;;;4.25;1.30;;;23.60;99.90;;;;;;5041404;28;20079;-86
2021/07/06 08:18:10;;;;;;;2.72;1.00;;;23.50;99.90;;;;;;5055624;28;20129;-88
2021/07/06 08:20:57;;;;;;;4.28;1.50;;;23.40;99.90;;;;;;5041611;28;20052;-84
2021/07/06 08:23:45;;;;;;;4.07;1.15;;;23.30;99.90;;;;;;5042324;28;20190;-87
2021/07/06 08:26:35;;;;;;;2.42;1.00;;;23.10;99.90;;;;;;5055887;28;20048;-87
2021/07/06 08:29:24;;;;;;;2.83;1.20;;;22.90;99.90;;;;;;5041619;28;20045;-89
2021/07/06 08:32:11;;;;;;;2.00;0.93;;;22.80;99.90;;;;;;5042566;28;20126;-87
2021/07/06 08:34:59;;;;;;;1.80;0.82;;;22.70;99.90;;;;;;5041123;28;20498;-89
2021/07/06 08:37:46;;;;;;;2.15;0.85;;;22.70;99.90;;;;;;5042719;28;20045;-88
2021/07/06 08:40:35;;;;;;;2.42;1.00;;;22.60;99.90;;;;;;5041259;28;20052;-88
2021/07/06 08:43:22;;;;;;;1.90;0.70;;;22.70;99.90;;;;;;5056570;28;20037;-87
2021/07/06 08:46:16;;;;;;;3.47;1.08;;;23.40;99.90;;;;;;5041481;28;20060;-89
2021/07/06 08:49:04;;;;;;;2.88;0.80;;;22.70;99.90;;;;;;5042686;28;20045;-89
2021/07/06 08:51:51;;;;;;;1.23;0.50;;;22.80;99.90;;;;;;5056253;28;20117;-89
2021/07/06 08:54:38;;;;;;;1.42;0.70;;;22.80;99.90;;;;;;5042723;28;20168;-86
2021/07/06 08:57:27;;;;;;;0.98;0.60;;;24.10;99.90;;;;;;5042170;28;20041;-88
2021/07/06 09:00:16;;;;;;;2.42;0.70;;;22.60;99.90;;;;;;5043104;28;20043;-89
2021/07/06 09:03:05;;;;;;;2.20;0.70;;;22.40;99.90;;;;;;5056763;28;20131;-85
2021/07/06 09:06:04;;;;;;;1.58;0.75;;;22.30;99.90;;;;;;5064043;28;20041;-81
2021/07/06 09:09:11;;;;;;;1.67;0.70;;;22.10;99.90;;;;;;5053847;28;20037;-86
2021/07/06 09:12:00;;;;;;;1.40;0.50;;;21.80;99.90;;;;;;5050802;28;20131;-84
2021/07/06 09:14:49;;;;;;;1.60;0.90;;;22.30;99.90;;;;;;5038319;28;20045;-84
2021/07/06 09:17:36;;;;;;;2.10;0.85;;;21.30;99.90;;;;;;5037450;28;20445;-85
2021/07/06 09:20:23;;;;;;;2.00;0.90;;;21.10;99.90;;;;;;5037281;28;20103;-83
2021/07/06 09:23:21;;;;;;;2.40;0.85;;;21.10;99.90;;;;;;5038768;28;20571;-84
2021/07/06 09:26:14;;;;;;;1.55;0.80;;;20.70;99.90;;;;;;5051870;28;20155;-81
2021/07/06 09:29:01;;;;;;;2.45;0.80;;;20.50;99.90;;;;;;5038119;28;20047;-85
2021/07/06 09:31:51;;;;;;;2.15;0.65;;;20.30;99.90;;;;;;5036193;28;20037;-84
2021/07/06 09:34:38;;;;;;;2.90;0.77;;;20.30;99.90;;;;;;5037619;28;20089;-83
2021/07/06 09:37:25;;;;;;;1.83;0.70;;;20.10;99.90;;;;;;5051004;28;20573;-83
2021/07/06 09:40:24;;;;;;;2.45;0.65;;;20.10;99.90;;;;;;5037148;28;20510;-85
2021/07/06 09:43:17;;;;;;;1.90;0.90;;;20.20;99.90;;;;;;5050697;28;20131;-84
2021/07/06 09:46:06;;;;;;;3.95;0.90;;;20.00;99.90;;;;;;5036253;28;20131;-83
2021/07/06 09:49:00;;;;;;;1.20;0.70;;;19.90;99.90;;;;;;5051347;28;20053;-86
2021/07/06 09:52:09;;;;;;;1.80;0.70;;;19.80;99.90;;;;;;5037601;28;20044;-84
2021/07/06 09:54:56;;;;;;;2.53;1.10;;;19.50;99.90;;;;;;5035944;28;20041;-84
2021/07/06 09:57:50;;;;;;;2.13;0.70;;;19.30;99.90;;;;;;5035705;28;20049;-85
2021/07/06 10:00:37;;;;;;;1.55;0.80;;;19.30;99.90;;;;;;5037409;28;20130;-84
2021/07/06 10:03:25;;;;;;;2.58;0.80;;;19.40;99.90;;;;;;5037386;28;20044;-85
2021/07/06 10:06:14;;;;;;;2.53;0.95;;;19.20;99.90;;;;;;5036291;28;20084;-84
2021/07/06 10:09:02;;;;;;;1.45;0.85;;;19.30;99.90;;;;;;5037237;28;20506;-84
2021/07/06 10:11:52;;;;;;;1.80;0.70;;;19.20;99.90;;;;;;5037842;28;20045;-83
2021/07/06 10:14:39;;;;;;;2.63;0.82;;;19.30;99.90;;;;;;5037713;28;20071;-86
2021/07/06 10:17:26;;;;;;;1.17;0.73;;;20.40;99.90;;;;;;5041108;28;20076;-85
2021/07/06 10:20:19;;;;;;;1.65;0.80;;;19.20;99.90;;;;;;5041344;28;20464;-82
2021/07/06 10:23:07;;;;;;;7.20;1.00;;;19.30;99.90;;;;;;5040913;28;20048;-85
2021/07/06 10:25:58;;;;;;;0.85;0.70;;;19.50;99.90;;;;;;5041430;28;20049;-84
2021/07/06 10:28:50;;;;;;;1.52;0.70;;;19.70;99.90;;;;;;5040995;28;20041;-84
2021/07/06 10:31:42;;;;;;;1.63;0.80;;;19.80;99.90;;;;;;5040568;28;20129;-84
2021/07/06 10:34:30;;;;;;;1.15;0.60;;;19.90;99.90;;;;;;5055148;28;20427;-86
2021/07/06 10:37:28;;;;;;;1.50;0.75;;;20.50;99.90;;;;;;5055303;28;20040;-86
2021/07/06 10:40:18;;;;;;;1.58;0.65;;;20.10;99.90;;;;;;5054830;28;20045;-85
2021/07/06 10:45:35;;;;;;;1.90;0.60;;;20.50;99.90;;;;;;5013595;28;20054;-86
2021/07/06 10:48:41;;;;;;;1.38;0.60;;;20.70;99.90;;;;;;5000769;28;20050;-86
2021/07/06 10:51:51;;;;;;;0.90;0.50;;;21.00;99.90;;;;;;5000805;28;20054;-86
2021/07/06 10:54:38;;;;;;;0.70;0.40;;;21.20;99.90;;;;;;5028812;28;20056;-86
2021/07/06 10:57:27;;;;;;;0.98;0.55;;;21.30;99.90;;;;;;5018772;28;20131;-86
2021/07/06 11:00:14;;;;;;;0.35;0.30;;;21.40;99.90;;;;;;5019816;28;20531;-85
2021/07/06 11:03:13;;;;;;;1.33;0.50;;;21.50;99.90;;;;;;5019218;28;20162;-86
2021/07/06 11:06:01;;;;;;;1.67;0.52;;;21.50;99.90;;;;;;5019982;28;20050;-86
2021/07/06 11:08:48;;;;;;;1.15;0.40;;;21.60;99.90;;;;;;5031804;28;20049;-86
2021/07/06 11:11:36;;;;;;;0.63;0.43;;;21.50;99.90;;;;;;5032638;28;20132;-86
2021/07/06 11:14:25;;;;;;;1.67;0.50;;;21.30;99.90;;;;;;5032535;28;20038;-84
2021/07/06 11:17:12;;;;;;;0.95;0.60;;;21.20;99.90;;;;;;5018269;28;20507;-86
2021/07/06 11:20:00;;;;;;;0.85;0.40;;;21.00;99.90;;;;;;5019864;28;20136;-86
2021/07/06 11:22:49;;;;;;;0.47;0.30;;;20.70;99.90;;;;;;5020034;28;20481;-85
2021/07/06 11:25:47;;;;;;;0.73;0.40;;;20.70;99.90;;;;;;5034322;28;20276;-86
2021/07/06 11:28:48;;;;;;;0.85;0.40;;;20.80;99.90;;;;;;5019132;28;20128;-86
2021/07/06 11:31:37;;;;;;;0.98;0.40;;;20.60;99.90;;;;;;5019864;28;20454;-86
2021/07/06 11:34:33;;;;;;;1.10;0.50;;;20.80;99.90;;;;;;5018176;28;20526;-87
2021/07/06 11:37:20;;;;;;;1.58;0.50;;;20.90;99.90;;;;;;5032468;28;20102;-86
2021/07/06 11:40:08;;;;;;;2.42;0.50;;;21.20;99.90;;;;;;5034158;28;20050;-86
2021/07/06 11:42:56;;;;;;;1.90;0.50;;;21.50;99.90;;;;;;5032741;28;20045;-86
2021/07/06 11:45:47;;;;;;;1.70;0.60;;;22.20;99.90;;;;;;5031257;28;20038;-85
2021/07/06 11:48:37;;;;;;;0.90;0.45;;;22.50;99.90;;;;;;5032710;28;20121;-86
2021/07/06 11:51:25;;;;;;;1.05;0.40;;;22.90;99.90;;;;;;5031363;28;20554;-86
2021/07/06 11:54:16;;;;;;;1.83;0.60;;;23.20;99.90;;;;;;5033085;28;20491;-83
2021/07/06 11:57:05;;;;;;;1.73;0.70;;;23.20;99.90;;;;;;5031159;28;20046;-83
2021/07/06 11:59:52;;;;;;;1.63;0.60;;;23.40;99.90;;;;;;5032776;28;20081;-86
2021/07/06 12:02:39;;;;;;;1.60;0.70;;;23.40;99.90;;;;;;5033026;28;20124;-87
2021/07/06 12:05:27;;;;;;;2.92;0.60;;;23.60;99.90;;;;;;5032148;28;20046;-86
2021/07/06 12:08:17;;;;;;;0.93;0.60;;;23.80;99.90;;;;;;5033080;28;20118;-86
2021/07/06 12:11:06;;;;;;;1.15;0.60;;;24.10;99.90;;;;;;5031955;28;20049;-86
2021/07/06 12:13:57;;;;;;;1.23;0.60;;;24.20;99.90;;;;;;5012043;28;20052;-86
2021/07/06 12:16:45;;;;;;;2.85;0.90;;;24.20;99.90;;;;;;5011475;28;20128;-86
2021/07/06 12:19:33;;;;;;;1.77;0.77;;;24.20;99.90;;;;;;5009716;28;20050;-87
2021/07/06 12:22:22;;;;;;;1.55;0.68;;;24.40;99.90;;;;;;5011522;28;20041;-87
2021/07/06 12:25:10;;;;;;;2.88;0.55;;;24.60;99.90;;;;;;5011435;28;20173;-86
2021/07/06 12:27:58;;;;;;;1.58;0.57;;;24.70;99.90;;;;;;5011240;28;20124;-86
2021/07/06 12:31:12;;;;;;;1.65;0.60;;;24.80;99.90;;;;;;5012244;28;20519;-85
2021/07/06 12:34:06;;;;;;;3.25;0.70;;;25.00;99.90;;;;;;5012495;28;20046;-86
2021/07/06 12:36:55;;;;;;;1.02;0.60;;;25.00;99.90;;;;;;5011724;28;20046;-87
2021/07/06 12:39:45;;;;;;;1.58;0.60;;;25.00;99.90;;;;;;5012487;28;20125;-86
2021/07/06 12:42:37;;;;;;;4.05;0.60;;;24.70;99.90;;;;;;5011759;28;20049;-86
2021/07/06 12:45:33;;;;;;;0.80;0.50;;;24.90;99.90;;;;;;5011011;28;20125;-86
2021/07/06 12:48:25;;;;;;;1.45;0.75;;;24.90;99.90;;;;;;5012246;28;20124;-86
2021/07/06 12:51:12;;;;;;;1.10;0.70;;;25.00;99.90;;;;;;5011787;28;20050;-86
2021/07/06 12:54:00;;;;;;;2.67;0.70;;;25.00;99.90;;;;;;5010850;28;20522;-86
2021/07/06 12:56:49;;;;;;;1.10;0.60;;;25.00;99.90;;;;;;5010370;28;20056;-84
2021/07/06 12:59:36;;;;;;;1.02;0.57;;;24.90;99.90;;;;;;5011294;28;20422;-86
2021/07/06 13:02:23;;;;;;;2.80;0.70;;;25.10;99.90;;;;;;5011381;28;20085;-83
2021/07/06 13:05:23;;;;;;;2.42;0.68;;;25.00;99.90;;;;;;5011238;28;20050;-86
2021/07/06 13:08:18;;;;;;;0.70;0.47;;;25.20;99.90;;;;;;5010483;28;20049;-86
2021/07/06 13:11:15;;;;;;;0.68;0.50;;;25.30;99.90;;;;;;5011085;28;20050;-86
2021/07/06 13:14:17;;;;;;;2.65;0.50;;;25.20;99.90;;;;;;4996740;28;20064;-87
2021/07/06 13:17:19;;;;;;;1.23;0.50;;;25.20;99.90;;;;;;4998183;28;20042;-85
2021/07/06 13:20:09;;;;;;;1.83;0.80;;;25.40;99.90;;;;;;5008997;28;20100;-86
2021/07/06 13:22:57;;;;;;;1.52;0.60;;;25.50;99.90;;;;;;4998134;28;20528;-87
2021/07/06 13:25:44;;;;;;;1.33;0.60;;;25.50;99.90;;;;;;5009610;28;20050;-82
2021/07/06 13:28:32;;;;;;;1.30;0.52;;;25.40;99.90;;;;;;5011553;28;20578;-86
2021/07/06 13:31:22;;;;;;;1.83;0.40;;;25.50;99.90;;;;;;5011749;28;20396;-86
2021/07/06 13:34:09;;;;;;;1.50;0.50;;;25.50;99.90;;;;;;5029914;28;20592;-86
2021/07/06 13:36:57;;;;;;;1.23;0.70;;;25.50;99.90;;;;;;5030778;28;20503;-84
2021/07/06 13:39:44;;;;;;;0.82;0.50;;;25.60;99.90;;;;;;5031034;28;20080;-86
2021/07/06 13:42:31;;;;;;;3.10;0.60;;;25.70;99.90;;;;;;5031548;28;20525;-84
2021/07/06 13:45:20;;;;;;;4.50;0.50;;;25.70;99.90;;;;;;5030767;28;20493;-87
2021/07/06 13:48:09;;;;;;;1.17;0.50;;;25.70;99.90;;;;;;5031155;28;20048;-87
2021/07/06 13:50:56;;;;;;;0.85;0.50;;;25.70;99.90;;;;;;5031892;28;20114;-84
2021/07/06 13:53:43;;;;;;;3.55;0.52;;;25.80;99.90;;;;;;5036073;28;20526;-87
2021/07/06 13:56:30;;;;;;;1.88;0.60;;;25.80;99.90;;;;;;5034519;28;20046;-86
2021/07/06 13:59:17;;;;;;;1.25;0.52;;;25.80;99.90;;;;;;5035402;28;20584;-87
2021/07/06 14:02:05;;;;;;;1.27;0.40;;;25.60;99.90;;;;;;5034047;28;20053;-85
2021/07/06 14:04:55;;;;;;;1.00;0.50;;;25.30;99.90;;;;;;5031993;28;20042;-85
2021/07/06 14:07:43;;;;;;;1.50;0.40;;;25.10;99.90;;;;;;5032987;28;20049;-86
2021/07/06 14:10:30;;;;;;;4.78;0.52;;;25.20;99.90;;;;;;5034216;28;20055;-87
2021/07/06 14:13:17;;;;;;;2.45;0.57;;;25.40;99.90;;;;;;5033126;28;20056;-84
2021/07/06 14:16:05;;;;;;;0.93;0.47;;;25.30;99.90;;;;;;5034198;28;20045;-87
2021/07/06 14:18:52;;;;;;;2.38;0.50;;;25.10;99.90;;;;;;5033351;28;20053;-87
2021/07/06 14:21:41;;;;;;;1.50;0.43;;;25.20;99.90;;;;;;5033301;28;20118;-84
2021/07/06 14:24:28;;;;;;;2.00;0.52;;;25.40;99.90;;;;;;5033956;28;20046;-85
2021/07/06 14:27:15;;;;;;;1.38;0.50;;;25.30;99.90;;;;;;5021030;28;20049;-86
2021/07/06 14:30:04;;;;;;;1.75;0.50;;;25.40;99.90;;;;;;5019672;28;20433;-87
2021/07/06 14:33:01;;;;;;;1.20;0.43;;;25.60;99.90;;;;;;5022003;28;20049;-87
2021/07/06 14:35:54;;;;;;;1.27;0.55;;;25.50;99.80;;;;;;5020096;28;20101;-84
2021/07/06 14:38:42;;;;;;;1.38;0.57;;;25.30;99.20;;;;;;5020506;28;20045;-86
2021/07/06 14:41:29;;;;;;;1.43;0.50;;;25.20;99.70;;;;;;5018927;28;20561;-87
2021/07/06 14:44:17;;;;;;;2.55;0.60;;;25.00;99.90;;;;;;5019675;28;20119;-86